Emilee Alexis — WDH9019 — position and weather

sailwx.info

Track history (hours):
 
Tides and Currents Weather Stations Pressure Air Temp Water Temp Dewpoint Dewpoint Depression Visibility Wind Speed Wind Dir Waves Ship Positions

Emilee Alexis

Owner: Aycock Towing Co., Inc., New Iberia, LA. More information available from US FCC via Universal Licensing System and Coast Guard Vessel Documentation Center.

Last reported at 2017-Sep-22 00:30 UTC. Time now 2017-Sep-22 00:42 UTC.
Position N 29°50' W 092°08'.

Length 22 m.

Type: Tug. MMSI: 366967790.

Date/timePositionNaut miles runAvg speedWind from/ knotsBaromVisibWave heightAir tempDewpointWater temp
2017-Sep-22 00:30N 29°50' W 092°08'0 0.0
2017-Sep-22 00:00N 29°50' W 092°08'0 0.0
2017-Sep-21 23:30N 29°50' W 092°08'0 0.0
2017-Sep-21 23:00N 29°50' W 092°08'0 0.0
2017-Sep-21 22:30N 29°50' W 092°08'0 0.0
2017-Sep-21 22:00N 29°50' W 092°08'0 0.0
2017-Sep-21 21:30N 29°50' W 092°08'0 0.0
2017-Sep-21 21:00N 29°50' W 092°08'0 0.0
2017-Sep-21 20:30N 29°50' W 092°08'0 0.0
2017-Sep-21 20:00N 29°50' W 092°08'0 0.0
2017-Sep-21 19:27N 29°50' W 092°08'0 0.0
2017-Sep-21 18:59N 29°50' W 092°08'0 0.0
2017-Sep-21 18:30N 29°50' W 092°08'1 2.7
2017-Sep-21 18:00N 29°51' W 092°07'0 0.0
2017-Sep-20 21:06N 29°51' W 092°08'0 3.8
2017-Sep-20 20:59N 29°51' W 092°08'2 3.2
2017-Sep-20 20:30N 29°49' W 092°08'2 4.0
2017-Sep-20 20:00N 29°47' W 092°08'3 5.2
2017-Sep-20 19:30N 29°48' W 092°06'3 5.2
2017-Sep-20 19:00N 29°49' W 092°03'2 4.9
2017-Sep-20 18:30N 29°50' W 092°00'  
Track history (hours):
 
Tides and Currents Weather Stations Pressure Air Temp Water Temp Dewpoint Dewpoint Depression Visibility Wind Speed Wind Dir Waves Ship Positions

Emilee Alexis

Owner: Aycock Towing Co., Inc., New Iberia, LA. More information available from US FCC via Universal Licensing System and Coast Guard Vessel Documentation Center.

Last reported at 2017-Sep-22 00:30 UTC. Time now 2017-Sep-22 00:42 UTC.
Position N 29°50' W 092°08'.

Length 22 m.

Type: Tug. MMSI: 366967790.

Date/timePositionNaut miles runAvg speedWind from/ knotsBaromVisibWave heightAir tempDewpointWater temp
2017-Sep-22 00:30N 29°50' W 092°08'0 0.0
2017-Sep-22 00:00N 29°50' W 092°08'0 0.0
2017-Sep-21 23:30N 29°50' W 092°08'0 0.0
2017-Sep-21 23:00N 29°50' W 092°08'0 0.0
2017-Sep-21 22:30N 29°50' W 092°08'0 0.0
2017-Sep-21 22:00N 29°50' W 092°08'0 0.0
2017-Sep-21 21:30N 29°50' W 092°08'0 0.0
2017-Sep-21 21:00N 29°50' W 092°08'0 0.0
2017-Sep-21 20:30N 29°50' W 092°08'0 0.0
2017-Sep-21 20:00N 29°50' W 092°08'0 0.0
2017-Sep-21 19:27N 29°50' W 092°08'0 0.0
2017-Sep-21 18:59N 29°50' W 092°08'0 0.0
2017-Sep-21 18:30N 29°50' W 092°08'1 2.7
2017-Sep-21 18:00N 29°51' W 092°07'0 0.0
2017-Sep-20 21:06N 29°51' W 092°08'0 3.8
2017-Sep-20 20:59N 29°51' W 092°08'2 3.2
2017-Sep-20 20:30N 29°49' W 092°08'2 4.0
2017-Sep-20 20:00N 29°47' W 092°08'3 5.2
2017-Sep-20 19:30N 29°48' W 092°06'3 5.2
2017-Sep-20 19:00N 29°49' W 092°03'2 4.9
2017-Sep-20 18:30N 29°50' W 092°00'  

Dump ship's entire track history